sensor_id;sensor_type;location;lat;lon;timestamp;P1;durP1;ratioP1;P2;durP2;ratioP2
434;SDS011;204;48.942;9.256;2023-04-06T00:00:48;14.90;;;13.40;;
434;SDS011;204;48.942;9.256;2023-04-06T00:03:16;15.07;;;14.27;;
434;SDS011;204;48.942;9.256;2023-04-06T00:05:41;15.63;;;14.83;;
434;SDS011;204;48.942;9.256;2023-04-06T00:08:07;15.10;;;14.30;;
434;SDS011;204;48.942;9.256;2023-04-06T00:10:33;13.80;;;13.10;;
434;SDS011;204;48.942;9.256;2023-04-06T00:12:59;14.10;;;13.40;;
434;SDS011;204;48.942;9.256;2023-04-06T00:15:25;15.43;;;14.63;;
434;SDS011;204;48.942;9.256;2023-04-06T00:17:51;13.85;;;13.13;;
434;SDS011;204;48.942;9.256;2023-04-06T00:20:17;14.47;;;13.73;;
434;SDS011;204;48.942;9.256;2023-04-06T00:22:43;15.18;;;12.98;;
434;SDS011;204;48.942;9.256;2023-04-06T00:25:08;15.43;;;13.63;;
434;SDS011;204;48.942;9.256;2023-04-06T00:27:38;17.17;;;15.73;;
434;SDS011;204;48.942;9.256;2023-04-06T00:30:04;15.68;;;14.25;;
434;SDS011;204;48.942;9.256;2023-04-06T00:32:30;13.43;;;12.73;;
434;SDS011;204;48.942;9.256;2023-04-06T00:34:56;16.13;;;15.33;;
434;SDS011;204;48.942;9.256;2023-04-06T00:37:23;13.20;;;12.52;;
434;SDS011;204;48.942;9.256;2023-04-06T00:39:48;18.43;;;15.37;;
434;SDS011;204;48.942;9.256;2023-04-06T00:42:16;14.45;;;13.75;;
434;SDS011;204;48.942;9.256;2023-04-06T00:44:43;16.08;;;15.05;;
434;SDS011;204;48.942;9.256;2023-04-06T00:47:09;14.90;;;14.10;;
434;SDS011;204;48.942;9.256;2023-04-06T00:49:34;15.33;;;14.53;;
434;SDS011;204;48.942;9.256;2023-04-06T00:52:00;16.00;;;13.73;;
434;SDS011;204;48.942;9.256;2023-04-06T00:54:26;15.67;;;14.87;;
434;SDS011;204;48.942;9.256;2023-04-06T00:56:53;15.75;;;14.95;;
434;SDS011;204;48.942;9.256;2023-04-06T00:59:20;14.93;;;14.13;;
434;SDS011;204;48.942;9.256;2023-04-06T01:01:45;14.67;;;13.57;;
434;SDS011;204;48.942;9.256;2023-04-06T01:04:11;14.73;;;13.97;;
434;SDS011;204;48.942;9.256;2023-04-06T01:06:37;14.17;;;13.47;;
434;SDS011;204;48.942;9.256;2023-04-06T01:09:02;13.10;;;12.40;;
434;SDS011;204;48.942;9.256;2023-04-06T01:11:28;14.77;;;14.00;;
434;SDS011;204;48.942;9.256;2023-04-06T01:13:54;15.73;;;14.10;;
434;SDS011;204;48.942;9.256;2023-04-06T01:16:20;15.00;;;14.20;;
434;SDS011;204;48.942;9.256;2023-04-06T01:18:46;14.23;;;13.53;;
434;SDS011;204;48.942;9.256;2023-04-06T01:21:11;15.57;;;14.13;;
434;SDS011;204;48.942;9.256;2023-04-06T01:23:44;15.35;;;13.93;;
434;SDS011;204;48.942;9.256;2023-04-06T01:26:11;14.43;;;13.73;;
434;SDS011;204;48.942;9.256;2023-04-06T01:28:37;16.02;;;15.23;;
434;SDS011;204;48.942;9.256;2023-04-06T01:31:03;16.37;;;15.57;;
434;SDS011;204;48.942;9.256;2023-04-06T01:33:30;14.95;;;14.15;;
434;SDS011;204;48.942;9.256;2023-04-06T01:35:55;14.40;;;13.70;;
434;SDS011;204;48.942;9.256;2023-04-06T01:38:21;15.07;;;14.27;;
434;SDS011;204;48.942;9.256;2023-04-06T01:40:46;16.27;;;15.23;;
434;SDS011;204;48.942;9.256;2023-04-06T01:43:12;14.13;;;13.30;;
434;SDS011;204;48.942;9.256;2023-04-06T01:45:38;15.10;;;13.90;;
434;SDS011;204;48.942;9.256;2023-04-06T01:48:03;14.20;;;12.50;;
434;SDS011;204;48.942;9.256;2023-04-06T01:50:29;14.23;;;13.48;;
434;SDS011;204;48.942;9.256;2023-04-06T01:52:55;14.40;;;13.70;;
434;SDS011;204;48.942;9.256;2023-04-06T01:55:20;13.23;;;12.53;;
434;SDS011;204;48.942;9.256;2023-04-06T01:57:46;13.97;;;13.27;;
434;SDS011;204;48.942;9.256;2023-04-06T02:00:12;15.67;;;14.27;;
434;SDS011;204;48.942;9.256;2023-04-06T02:02:38;14.02;;;13.20;;
434;SDS011;204;48.942;9.256;2023-04-06T02:05:04;14.00;;;13.30;;
434;SDS011;204;48.942;9.256;2023-04-06T02:07:30;15.18;;;14.38;;
434;SDS011;204;48.942;9.256;2023-04-06T02:09:55;14.47;;;13.77;;
434;SDS011;204;48.942;9.256;2023-04-06T02:12:21;14.30;;;13.60;;
434;SDS011;204;48.942;9.256;2023-04-06T02:14:47;15.60;;;14.80;;
434;SDS011;204;48.942;9.256;2023-04-06T02:17:12;15.83;;;15.03;;
434;SDS011;204;48.942;9.256;2023-04-06T02:19:38;15.33;;;14.50;;
434;SDS011;204;48.942;9.256;2023-04-06T02:22:03;14.40;;;13.70;;
434;SDS011;204;48.942;9.256;2023-04-06T02:24:29;14.23;;;13.53;;
434;SDS011;204;48.942;9.256;2023-04-06T02:26:55;16.27;;;14.57;;
434;SDS011;204;48.942;9.256;2023-04-06T02:29:20;15.73;;;14.93;;
434;SDS011;204;48.942;9.256;2023-04-06T02:31:46;16.90;;;15.03;;
434;SDS011;204;48.942;9.256;2023-04-06T02:34:12;15.63;;;14.00;;
434;SDS011;204;48.942;9.256;2023-04-06T02:36:42;15.38;;;14.57;;
434;SDS011;204;48.942;9.256;2023-04-06T02:39:11;14.85;;;13.65;;
434;SDS011;204;48.942;9.256;2023-04-06T02:41:38;15.77;;;14.98;;
434;SDS011;204;48.942;9.256;2023-04-06T02:44:05;14.65;;;13.40;;
434;SDS011;204;48.942;9.256;2023-04-06T02:46:32;15.50;;;14.73;;
434;SDS011;204;48.942;9.256;2023-04-06T02:48:57;16.60;;;14.60;;
434;SDS011;204;48.942;9.256;2023-04-06T02:51:25;15.85;;;15.05;;
434;SDS011;204;48.942;9.256;2023-04-06T02:53:51;14.50;;;13.82;;
434;SDS011;204;48.942;9.256;2023-04-06T02:56:17;14.77;;;14.00;;
434;SDS011;204;48.942;9.256;2023-04-06T02:58:45;14.90;;;14.10;;
434;SDS011;204;48.942;9.256;2023-04-06T03:01:11;14.75;;;14.00;;
434;SDS011;204;48.942;9.256;2023-04-06T03:03:37;14.00;;;13.30;;
434;SDS011;204;48.942;9.256;2023-04-06T03:06:02;15.20;;;14.40;;
434;SDS011;204;48.942;9.256;2023-04-06T03:08:28;13.87;;;13.17;;
434;SDS011;204;48.942;9.256;2023-04-06T03:10:54;14.10;;;13.40;;
434;SDS011;204;48.942;9.256;2023-04-06T03:13:20;13.97;;;13.27;;
434;SDS011;204;48.942;9.256;2023-04-06T03:15:45;15.70;;;13.73;;
434;SDS011;204;48.942;9.256;2023-04-06T03:18:11;16.60;;;15.80;;
434;SDS011;204;48.942;9.256;2023-04-06T03:20:37;15.17;;;14.27;;
434;SDS011;204;48.942;9.256;2023-04-06T03:23:02;14.47;;;13.77;;
434;SDS011;204;48.942;9.256;2023-04-06T03:25:28;14.87;;;14.07;;
434;SDS011;204;48.942;9.256;2023-04-06T03:27:55;14.50;;;13.80;;
434;SDS011;204;48.942;9.256;2023-04-06T03:30:21;17.13;;;15.07;;
434;SDS011;204;48.942;9.256;2023-04-06T03:32:46;18.80;;;13.67;;
434;SDS011;204;48.942;9.256;2023-04-06T03:35:12;14.33;;;13.40;;
434;SDS011;204;48.942;9.256;2023-04-06T03:37:38;15.30;;;13.97;;
434;SDS011;204;48.942;9.256;2023-04-06T03:40:04;15.37;;;14.57;;
434;SDS011;204;48.942;9.256;2023-04-06T03:42:30;15.85;;;15.05;;
434;SDS011;204;48.942;9.256;2023-04-06T03:44:57;16.67;;;14.27;;
434;SDS011;204;48.942;9.256;2023-04-06T03:47:23;17.30;;;15.60;;
434;SDS011;204;48.942;9.256;2023-04-06T03:49:49;15.00;;;14.10;;
434;SDS011;204;48.942;9.256;2023-04-06T03:52:15;14.27;;;13.63;;
434;SDS011;204;48.942;9.256;2023-04-06T03:54:40;16.53;;;15.53;;
434;SDS011;204;48.942;9.256;2023-04-06T03:57:06;15.73;;;14.63;;
434;SDS011;204;48.942;9.256;2023-04-06T03:59:32;14.60;;;13.90;;
434;SDS011;204;48.942;9.256;2023-04-06T04:01:57;15.70;;;14.90;;
434;SDS011;204;48.942;9.256;2023-04-06T04:04:23;15.10;;;14.30;;
434;SDS011;204;48.942;9.256;2023-04-06T04:06:48;18.67;;;16.50;;
434;SDS011;204;48.942;9.256;2023-04-06T04:09:14;16.63;;;15.83;;
434;SDS011;204;48.942;9.256;2023-04-06T04:11:40;16.13;;;15.33;;
434;SDS011;204;48.942;9.256;2023-04-06T04:14:06;19.87;;;16.57;;
434;SDS011;204;48.942;9.256;2023-04-06T04:16:31;18.03;;;16.90;;
434;SDS011;204;48.942;9.256;2023-04-06T04:18:57;15.30;;;14.50;;
434;SDS011;204;48.942;9.256;2023-04-06T04:21:28;16.15;;;14.95;;
434;SDS011;204;48.942;9.256;2023-04-06T04:23:55;18.33;;;17.02;;
434;SDS011;204;48.942;9.256;2023-04-06T04:26:20;16.87;;;15.97;;
434;SDS011;204;48.942;9.256;2023-04-06T04:28:46;18.63;;;15.97;;
434;SDS011;204;48.942;9.256;2023-04-06T04:31:12;16.10;;;15.13;;
434;SDS011;204;48.942;9.256;2023-04-06T04:33:37;17.63;;;16.73;;
434;SDS011;204;48.942;9.256;2023-04-06T04:36:03;17.37;;;16.47;;
434;SDS011;204;48.942;9.256;2023-04-06T04:38:29;18.33;;;16.42;;
434;SDS011;204;48.942;9.256;2023-04-06T04:40:54;16.67;;;15.87;;
434;SDS011;204;48.942;9.256;2023-04-06T04:43:20;17.83;;;16.73;;
434;SDS011;204;48.942;9.256;2023-04-06T04:45:46;17.90;;;17.00;;
434;SDS011;204;48.942;9.256;2023-04-06T04:48:11;16.97;;;16.10;;
434;SDS011;204;48.942;9.256;2023-04-06T04:50:37;18.23;;;17.33;;
434;SDS011;204;48.942;9.256;2023-04-06T04:53:03;16.10;;;15.30;;
434;SDS011;204;48.942;9.256;2023-04-06T04:55:30;18.27;;;16.75;;
434;SDS011;204;48.942;9.256;2023-04-06T04:57:56;17.33;;;16.43;;
434;SDS011;204;48.942;9.256;2023-04-06T05:00:22;19.43;;;17.40;;
434;SDS011;204;48.942;9.256;2023-04-06T05:02:48;18.40;;;17.50;;
434;SDS011;204;48.942;9.256;2023-04-06T05:05:13;18.37;;;17.40;;
434;SDS011;204;48.942;9.256;2023-04-06T05:07:39;17.70;;;16.80;;
434;SDS011;204;48.942;9.256;2023-04-06T05:10:05;19.07;;;18.07;;
434;SDS011;204;48.942;9.256;2023-04-06T05:12:31;19.25;;;18.27;;
434;SDS011;204;48.942;9.256;2023-04-06T05:14:57;18.67;;;17.77;;
434;SDS011;204;48.942;9.256;2023-04-06T05:17:22;18.73;;;17.83;;
434;SDS011;204;48.942;9.256;2023-04-06T05:19:48;19.93;;;18.50;;
434;SDS011;204;48.942;9.256;2023-04-06T05:22:13;19.17;;;18.10;;
434;SDS011;204;48.942;9.256;2023-04-06T05:24:42;18.17;;;17.27;;
434;SDS011;204;48.942;9.256;2023-04-06T05:27:08;18.63;;;17.73;;
434;SDS011;204;48.942;9.256;2023-04-06T05:29:34;18.40;;;17.50;;
434;SDS011;204;48.942;9.256;2023-04-06T05:32:00;20.17;;;18.50;;
434;SDS011;204;48.942;9.256;2023-04-06T05:34:26;18.15;;;17.17;;
434;SDS011;204;48.942;9.256;2023-04-06T05:36:52;17.63;;;16.17;;
434;SDS011;204;48.942;9.256;2023-04-06T05:39:17;18.40;;;14.70;;
434;SDS011;204;48.942;9.256;2023-04-06T05:41:43;16.43;;;15.17;;
434;SDS011;204;48.942;9.256;2023-04-06T05:44:08;18.33;;;16.20;;
434;SDS011;204;48.942;9.256;2023-04-06T05:46:34;20.00;;;16.00;;
434;SDS011;204;48.942;9.256;2023-04-06T05:49:00;17.83;;;16.97;;
434;SDS011;204;48.942;9.256;2023-04-06T05:51:26;16.73;;;15.93;;
434;SDS011;204;48.942;9.256;2023-04-06T05:53:52;18.48;;;16.90;;
434;SDS011;204;48.942;9.256;2023-04-06T05:56:18;18.80;;;16.43;;
434;SDS011;204;48.942;9.256;2023-04-06T05:58:43;17.67;;;15.57;;
434;SDS011;204;48.942;9.256;2023-04-06T06:01:09;16.00;;;15.23;;
434;SDS011;204;48.942;9.256;2023-04-06T06:03:35;17.90;;;14.93;;
434;SDS011;204;48.942;9.256;2023-04-06T06:06:01;16.27;;;13.87;;
434;SDS011;204;48.942;9.256;2023-04-06T06:08:28;15.27;;;14.23;;
434;SDS011;204;48.942;9.256;2023-04-06T06:10:54;16.67;;;14.63;;
434;SDS011;204;48.942;9.256;2023-04-06T06:13:20;19.20;;;16.00;;
434;SDS011;204;48.942;9.256;2023-04-06T06:15:46;15.32;;;14.52;;
434;SDS011;204;48.942;9.256;2023-04-06T06:18:12;14.40;;;13.70;;
434;SDS011;204;48.942;9.256;2023-04-06T06:20:38;18.47;;;13.33;;
434;SDS011;204;48.942;9.256;2023-04-06T06:23:03;15.20;;;12.70;;
434;SDS011;204;48.942;9.256;2023-04-06T06:25:29;18.73;;;13.20;;
434;SDS011;204;48.942;9.256;2023-04-06T06:27:58;12.45;;;11.85;;
434;SDS011;204;48.942;9.256;2023-04-06T06:30:23;14.93;;;12.90;;
434;SDS011;204;48.942;9.256;2023-04-06T06:32:50;16.02;;;13.60;;
434;SDS011;204;48.942;9.256;2023-04-06T06:35:16;13.35;;;12.75;;
434;SDS011;204;48.942;9.256;2023-04-06T06:37:42;13.18;;;12.48;;
434;SDS011;204;48.942;9.256;2023-04-06T06:40:08;19.67;;;13.20;;
434;SDS011;204;48.942;9.256;2023-04-06T06:42:35;12.90;;;11.90;;
434;SDS011;204;48.942;9.256;2023-04-06T06:45:01;14.07;;;11.85;;
434;SDS011;204;48.942;9.256;2023-04-06T06:47:27;12.97;;;12.27;;
434;SDS011;204;48.942;9.256;2023-04-06T06:49:52;15.80;;;12.27;;
434;SDS011;204;48.942;9.256;2023-04-06T06:52:18;13.73;;;11.95;;
434;SDS011;204;48.942;9.256;2023-04-06T06:54:44;15.40;;;11.77;;
434;SDS011;204;48.942;9.256;2023-04-06T06:57:10;13.23;;;12.50;;
434;SDS011;204;48.942;9.256;2023-04-06T06:59:35;13.50;;;12.60;;
434;SDS011;204;48.942;9.256;2023-04-06T07:02:01;12.50;;;11.90;;
434;SDS011;204;48.942;9.256;2023-04-06T07:04:26;12.37;;;11.77;;
434;SDS011;204;48.942;9.256;2023-04-06T07:06:52;13.60;;;12.77;;
434;SDS011;204;48.942;9.256;2023-04-06T07:09:18;13.90;;;12.17;;
434;SDS011;204;48.942;9.256;2023-04-06T07:11:44;13.32;;;12.27;;
434;SDS011;204;48.942;9.256;2023-04-06T07:14:09;11.60;;;10.50;;
434;SDS011;204;48.942;9.256;2023-04-06T07:16:36;13.55;;;12.85;;
434;SDS011;204;48.942;9.256;2023-04-06T07:19:02;12.77;;;12.07;;
434;SDS011;204;48.942;9.256;2023-04-06T07:21:28;11.80;;;10.90;;
434;SDS011;204;48.942;9.256;2023-04-06T07:23:53;15.53;;;11.30;;
434;SDS011;204;48.942;9.256;2023-04-06T07:26:19;12.80;;;12.10;;
434;SDS011;204;48.942;9.256;2023-04-06T07:28:45;11.30;;;10.73;;
434;SDS011;204;48.942;9.256;2023-04-06T07:31:10;12.67;;;12.00;;
434;SDS011;204;48.942;9.256;2023-04-06T07:33:36;13.83;;;11.63;;
434;SDS011;204;48.942;9.256;2023-04-06T07:36:02;15.20;;;12.33;;
434;SDS011;204;48.942;9.256;2023-04-06T07:38:28;13.20;;;11.40;;
434;SDS011;204;48.942;9.256;2023-04-06T07:40:53;14.13;;;11.40;;
434;SDS011;204;48.942;9.256;2023-04-06T07:43:19;13.40;;;12.53;;
434;SDS011;204;48.942;9.256;2023-04-06T07:45:45;11.67;;;11.07;;
434;SDS011;204;48.942;9.256;2023-04-06T07:48:10;11.37;;;10.77;;
434;SDS011;204;48.942;9.256;2023-04-06T07:50:36;11.80;;;11.20;;
434;SDS011;204;48.942;9.256;2023-04-06T07:53:02;13.90;;;11.27;;
434;SDS011;204;48.942;9.256;2023-04-06T07:55:27;10.77;;;10.17;;
434;SDS011;204;48.942;9.256;2023-04-06T07:57:53;10.00;;;9.50;;
434;SDS011;204;48.942;9.256;2023-04-06T08:00:19;10.60;;;10.00;;
434;SDS011;204;48.942;9.256;2023-04-06T08:02:45;11.68;;;11.05;;
434;SDS011;204;48.942;9.256;2023-04-06T08:05:11;12.63;;;11.10;;
434;SDS011;204;48.942;9.256;2023-04-06T08:07:36;11.30;;;10.70;;
434;SDS011;204;48.942;9.256;2023-04-06T08:10:02;11.70;;;11.13;;
434;SDS011;204;48.942;9.256;2023-04-06T08:12:28;11.45;;;10.85;;
434;SDS011;204;48.942;9.256;2023-04-06T08:14:54;12.10;;;11.50;;
434;SDS011;204;48.942;9.256;2023-04-06T08:17:20;11.93;;;11.37;;
434;SDS011;204;48.942;9.256;2023-04-06T08:19:45;11.30;;;10.60;;
434;SDS011;204;48.942;9.256;2023-04-06T08:22:11;12.47;;;10.83;;
434;SDS011;204;48.942;9.256;2023-04-06T08:24:37;12.00;;;11.40;;
434;SDS011;204;48.942;9.256;2023-04-06T08:27:03;10.80;;;10.20;;
434;SDS011;204;48.942;9.256;2023-04-06T08:29:28;13.63;;;10.60;;
434;SDS011;204;48.942;9.256;2023-04-06T08:31:54;11.90;;;11.23;;
434;SDS011;204;48.942;9.256;2023-04-06T08:34:20;11.40;;;10.80;;
434;SDS011;204;48.942;9.256;2023-04-06T08:36:46;11.82;;;11.23;;
434;SDS011;204;48.942;9.256;2023-04-06T08:39:12;12.03;;;11.50;;
434;SDS011;204;48.942;9.256;2023-04-06T08:41:38;14.50;;;10.60;;
434;SDS011;204;48.942;9.256;2023-04-06T08:44:06;12.50;;;10.50;;
434;SDS011;204;48.942;9.256;2023-04-06T08:46:32;18.97;;;11.67;;
434;SDS011;204;48.942;9.256;2023-04-06T08:49:02;11.63;;;10.50;;
434;SDS011;204;48.942;9.256;2023-04-06T08:51:29;12.30;;;10.20;;
434;SDS011;204;48.942;9.256;2023-04-06T08:53:58;11.50;;;10.48;;
434;SDS011;204;48.942;9.256;2023-04-06T08:56:25;10.80;;;10.20;;
434;SDS011;204;48.942;9.256;2023-04-06T08:58:53;16.75;;;11.43;;
434;SDS011;204;48.942;9.256;2023-04-06T09:01:24;12.45;;;10.85;;
434;SDS011;204;48.942;9.256;2023-04-06T09:03:51;12.82;;;9.63;;
434;SDS011;204;48.942;9.256;2023-04-06T09:06:24;10.93;;;9.38;;
434;SDS011;204;48.942;9.256;2023-04-06T09:08:52;12.18;;;9.85;;
434;SDS011;204;48.942;9.256;2023-04-06T09:11:18;11.02;;;9.55;;
434;SDS011;204;48.942;9.256;2023-04-06T09:13:50;9.10;;;8.57;;
434;SDS011;204;48.942;9.256;2023-04-06T09:16:19;13.73;;;9.55;;
434;SDS011;204;48.942;9.256;2023-04-06T09:18:45;12.70;;;9.70;;
434;SDS011;204;48.942;9.256;2023-04-06T09:21:11;14.00;;;9.68;;
434;SDS011;204;48.942;9.256;2023-04-06T09:23:37;11.10;;;10.50;;
434;SDS011;204;48.942;9.256;2023-04-06T09:26:16;11.68;;;9.10;;
434;SDS011;204;48.942;9.256;2023-04-06T09:31:16;10.85;;;10.00;;
434;SDS011;204;48.942;9.256;2023-04-06T09:34:02;13.43;;;11.00;;
434;SDS011;204;48.942;9.256;2023-04-06T09:36:34;12.10;;;10.47;;
434;SDS011;204;48.942;9.256;2023-04-06T09:39:03;10.23;;;9.52;;
434;SDS011;204;48.942;9.256;2023-04-06T09:41:33;15.25;;;10.18;;
434;SDS011;204;48.942;9.256;2023-04-06T09:44:04;11.88;;;9.18;;
434;SDS011;204;48.942;9.256;2023-04-06T09:46:32;10.30;;;9.43;;
434;SDS011;204;48.942;9.256;2023-04-06T09:49:01;10.57;;;10.02;;
434;SDS011;204;48.942;9.256;2023-04-06T09:51:31;9.73;;;8.88;;
434;SDS011;204;48.942;9.256;2023-04-06T09:54:01;10.65;;;9.48;;
434;SDS011;204;48.942;9.256;2023-04-06T09:56:51;9.60;;;9.10;;
434;SDS011;204;48.942;9.256;2023-04-06T09:59:43;12.30;;;10.40;;
434;SDS011;204;48.942;9.256;2023-04-06T10:02:26;9.93;;;8.77;;
434;SDS011;204;48.942;9.256;2023-04-06T10:05:02;10.05;;;9.55;;
434;SDS011;204;48.942;9.256;2023-04-06T10:07:34;10.05;;;8.32;;
434;SDS011;204;48.942;9.256;2023-04-06T10:10:01;9.45;;;8.80;;
434;SDS011;204;48.942;9.256;2023-04-06T10:12:28;11.77;;;9.45;;
434;SDS011;204;48.942;9.256;2023-04-06T10:14:53;10.70;;;9.13;;
434;SDS011;204;48.942;9.256;2023-04-06T10:17:20;8.95;;;8.45;;
434;SDS011;204;48.942;9.256;2023-04-06T10:20:08;10.20;;;8.30;;
434;SDS011;204;48.942;9.256;2023-04-06T10:25:15;8.88;;;8.38;;
434;SDS011;204;48.942;9.256;2023-04-06T10:27:41;9.80;;;9.30;;
434;SDS011;204;48.942;9.256;2023-04-06T10:30:07;9.33;;;8.83;;
434;SDS011;204;48.942;9.256;2023-04-06T10:32:33;9.27;;;8.33;;
434;SDS011;204;48.942;9.256;2023-04-06T10:35:10;7.47;;;7.07;;
434;SDS011;204;48.942;9.256;2023-04-06T10:37:49;8.15;;;7.55;;
434;SDS011;204;48.942;9.256;2023-04-06T10:40:26;12.05;;;9.90;;
434;SDS011;204;48.942;9.256;2023-04-06T10:42:53;10.45;;;8.30;;
434;SDS011;204;48.942;9.256;2023-04-06T10:45:23;9.77;;;8.55;;
434;SDS011;204;48.942;9.256;2023-04-06T10:47:53;11.90;;;9.05;;
434;SDS011;204;48.942;9.256;2023-04-06T10:50:20;12.13;;;9.07;;
434;SDS011;204;48.942;9.256;2023-04-06T10:52:46;11.23;;;9.95;;
434;SDS011;204;48.942;9.256;2023-04-06T10:55:15;9.43;;;8.93;;
434;SDS011;204;48.942;9.256;2023-04-06T10:57:41;9.82;;;9.32;;
434;SDS011;204;48.942;9.256;2023-04-06T11:00:07;10.17;;;9.40;;
434;SDS011;204;48.942;9.256;2023-04-06T11:02:34;9.95;;;9.48;;
434;SDS011;204;48.942;9.256;2023-04-06T11:05:02;9.10;;;8.57;;
434;SDS011;204;48.942;9.256;2023-04-06T11:07:28;11.67;;;10.13;;
434;SDS011;204;48.942;9.256;2023-04-06T11:09:55;9.15;;;8.65;;
434;SDS011;204;48.942;9.256;2023-04-06T11:12:22;11.85;;;10.95;;
434;SDS011;204;48.942;9.256;2023-04-06T11:14:54;9.55;;;9.00;;
434;SDS011;204;48.942;9.256;2023-04-06T11:17:30;10.20;;;9.70;;
434;SDS011;204;48.942;9.256;2023-04-06T11:20:01;10.20;;;8.95;;
434;SDS011;204;48.942;9.256;2023-04-06T11:22:27;10.77;;;10.20;;
434;SDS011;204;48.942;9.256;2023-04-06T11:25:04;10.52;;;9.98;;
434;SDS011;204;48.942;9.256;2023-04-06T11:27:31;11.95;;;10.57;;
434;SDS011;204;48.942;9.256;2023-04-06T11:29:58;12.53;;;9.37;;
434;SDS011;204;48.942;9.256;2023-04-06T11:32:24;10.23;;;9.60;;
434;SDS011;204;48.942;9.256;2023-04-06T11:34:50;11.07;;;9.70;;
434;SDS011;204;48.942;9.256;2023-04-06T11:37:16;9.90;;;9.40;;
434;SDS011;204;48.942;9.256;2023-04-06T11:39:48;11.10;;;10.50;;
434;SDS011;204;48.942;9.256;2023-04-06T11:42:22;11.63;;;9.68;;
434;SDS011;204;48.942;9.256;2023-04-06T11:44:55;13.05;;;9.60;;
434;SDS011;204;48.942;9.256;2023-04-06T11:47:28;12.68;;;9.52;;
434;SDS011;204;48.942;9.256;2023-04-06T11:49:55;10.13;;;9.48;;
434;SDS011;204;48.942;9.256;2023-04-06T11:52:29;10.77;;;9.35;;
434;SDS011;204;48.942;9.256;2023-04-06T11:54:56;10.10;;;8.75;;
434;SDS011;204;48.942;9.256;2023-04-06T11:57:22;9.80;;;9.00;;
434;SDS011;204;48.942;9.256;2023-04-06T11:59:50;9.80;;;9.30;;
434;SDS011;204;48.942;9.256;2023-04-06T12:02:16;9.77;;;9.27;;
434;SDS011;204;48.942;9.256;2023-04-06T12:04:42;13.27;;;9.50;;
434;SDS011;204;48.942;9.256;2023-04-06T12:07:08;9.23;;;8.70;;
434;SDS011;204;48.942;9.256;2023-04-06T12:09:34;14.50;;;10.17;;
434;SDS011;204;48.942;9.256;2023-04-06T12:12:01;11.32;;;9.20;;
434;SDS011;204;48.942;9.256;2023-04-06T12:14:27;10.05;;;9.50;;
434;SDS011;204;48.942;9.256;2023-04-06T12:16:52;12.70;;;9.33;;
434;SDS011;204;48.942;9.256;2023-04-06T12:19:18;9.77;;;9.23;;
434;SDS011;204;48.942;9.256;2023-04-06T12:21:45;9.20;;;8.70;;
434;SDS011;204;48.942;9.256;2023-04-06T12:24:10;10.93;;;10.33;;
434;SDS011;204;48.942;9.256;2023-04-06T12:26:36;10.53;;;9.37;;
434;SDS011;204;48.942;9.256;2023-04-06T12:29:02;9.73;;;9.27;;
434;SDS011;204;48.942;9.256;2023-04-06T12:31:32;9.98;;;9.13;;
434;SDS011;204;48.942;9.256;2023-04-06T12:33:59;9.40;;;8.77;;
434;SDS011;204;48.942;9.256;2023-04-06T12:36:27;9.23;;;8.57;;
434;SDS011;204;48.942;9.256;2023-04-06T12:38:53;10.03;;;9.60;;
434;SDS011;204;48.942;9.256;2023-04-06T12:41:18;10.47;;;8.70;;
434;SDS011;204;48.942;9.256;2023-04-06T12:43:45;9.60;;;9.10;;
434;SDS011;204;48.942;9.256;2023-04-06T12:46:10;10.23;;;9.73;;
434;SDS011;204;48.942;9.256;2023-04-06T12:48:36;11.23;;;9.13;;
434;SDS011;204;48.942;9.256;2023-04-06T12:51:03;8.15;;;7.75;;
434;SDS011;204;48.942;9.256;2023-04-06T12:53:31;10.18;;;9.48;;
434;SDS011;204;48.942;9.256;2023-04-06T12:55:57;12.85;;;10.13;;
434;SDS011;204;48.942;9.256;2023-04-06T12:58:24;9.38;;;8.88;;
434;SDS011;204;48.942;9.256;2023-04-06T13:00:54;10.32;;;8.88;;
434;SDS011;204;48.942;9.256;2023-04-06T13:03:22;10.75;;;8.65;;
434;SDS011;204;48.942;9.256;2023-04-06T13:05:51;9.85;;;9.35;;
434;SDS011;204;48.942;9.256;2023-04-06T13:08:18;12.05;;;9.85;;
434;SDS011;204;48.942;9.256;2023-04-06T13:10:46;12.30;;;9.30;;
434;SDS011;204;48.942;9.256;2023-04-06T13:13:13;11.18;;;9.25;;
434;SDS011;204;48.942;9.256;2023-04-06T13:15:39;9.50;;;8.93;;
434;SDS011;204;48.942;9.256;2023-04-06T13:18:05;9.70;;;8.40;;
434;SDS011;204;48.942;9.256;2023-04-06T13:20:31;10.02;;;8.95;;
434;SDS011;204;48.942;9.256;2023-04-06T13:22:57;9.80;;;9.23;;
434;SDS011;204;48.942;9.256;2023-04-06T13:25:22;10.33;;;9.83;;
434;SDS011;204;48.942;9.256;2023-04-06T13:27:48;9.87;;;8.80;;
434;SDS011;204;48.942;9.256;2023-04-06T13:30:14;10.70;;;9.27;;
434;SDS011;204;48.942;9.256;2023-04-06T13:32:40;9.18;;;8.68;;
434;SDS011;204;48.942;9.256;2023-04-06T13:35:06;11.40;;;9.73;;
434;SDS011;204;48.942;9.256;2023-04-06T13:37:33;10.70;;;10.10;;
434;SDS011;204;48.942;9.256;2023-04-06T13:40:00;10.48;;;9.45;;
434;SDS011;204;48.942;9.256;2023-04-06T13:42:27;9.45;;;8.95;;
434;SDS011;204;48.942;9.256;2023-04-06T13:44:53;10.23;;;9.10;;
434;SDS011;204;48.942;9.256;2023-04-06T13:47:18;10.03;;;8.87;;
434;SDS011;204;48.942;9.256;2023-04-06T13:49:45;9.18;;;8.68;;
434;SDS011;204;48.942;9.256;2023-04-06T13:52:11;8.95;;;8.45;;
434;SDS011;204;48.942;9.256;2023-04-06T13:54:37;9.30;;;8.80;;
434;SDS011;204;48.942;9.256;2023-04-06T13:57:03;9.43;;;8.53;;
434;SDS011;204;48.942;9.256;2023-04-06T13:59:35;8.75;;;8.27;;
434;SDS011;204;48.942;9.256;2023-04-06T14:02:02;11.18;;;8.25;;
434;SDS011;204;48.942;9.256;2023-04-06T14:04:28;12.38;;;8.68;;
434;SDS011;204;48.942;9.256;2023-04-06T14:06:54;11.03;;;8.73;;
434;SDS011;204;48.942;9.256;2023-04-06T14:09:19;10.20;;;9.03;;
434;SDS011;204;48.942;9.256;2023-04-06T14:11:45;8.80;;;8.33;;
434;SDS011;204;48.942;9.256;2023-04-06T14:14:11;8.20;;;7.80;;
434;SDS011;204;48.942;9.256;2023-04-06T14:16:37;9.37;;;8.47;;
434;SDS011;204;48.942;9.256;2023-04-06T14:19:03;8.77;;;8.27;;
434;SDS011;204;48.942;9.256;2023-04-06T14:21:28;10.50;;;8.20;;
434;SDS011;204;48.942;9.256;2023-04-06T14:23:54;9.70;;;9.10;;
434;SDS011;204;48.942;9.256;2023-04-06T14:26:20;11.20;;;8.97;;
434;SDS011;204;48.942;9.256;2023-04-06T14:28:45;8.90;;;8.40;;
434;SDS011;204;48.942;9.256;2023-04-06T14:31:12;9.00;;;8.10;;
434;SDS011;204;48.942;9.256;2023-04-06T14:33:39;9.60;;;9.03;;
434;SDS011;204;48.942;9.256;2023-04-06T14:36:06;9.40;;;8.10;;
434;SDS011;204;48.942;9.256;2023-04-06T14:38:33;8.37;;;8.00;;
434;SDS011;204;48.942;9.256;2023-04-06T14:40:59;8.60;;;8.10;;
434;SDS011;204;48.942;9.256;2023-04-06T14:43:24;8.90;;;8.40;;
434;SDS011;204;48.942;9.256;2023-04-06T14:45:50;7.97;;;7.57;;
434;SDS011;204;48.942;9.256;2023-04-06T14:48:16;9.87;;;8.70;;
434;SDS011;204;48.942;9.256;2023-04-06T14:50:52;10.77;;;9.40;;
434;SDS011;204;48.942;9.256;2023-04-06T14:53:18;8.90;;;8.40;;
434;SDS011;204;48.942;9.256;2023-04-06T14:55:44;8.47;;;8.00;;
434;SDS011;204;48.942;9.256;2023-04-06T14:58:10;12.67;;;8.30;;
434;SDS011;204;48.942;9.256;2023-04-06T15:00:36;11.23;;;9.10;;
434;SDS011;204;48.942;9.256;2023-04-06T15:03:03;9.73;;;8.80;;
434;SDS011;204;48.942;9.256;2023-04-06T15:05:29;11.10;;;8.40;;
434;SDS011;204;48.942;9.256;2023-04-06T15:07:56;8.13;;;7.63;;
434;SDS011;204;48.942;9.256;2023-04-06T15:10:21;8.03;;;7.57;;
434;SDS011;204;48.942;9.256;2023-04-06T15:12:47;9.27;;;8.30;;
434;SDS011;204;48.942;9.256;2023-04-06T15:15:12;8.93;;;7.13;;
434;SDS011;204;48.942;9.256;2023-04-06T15:17:38;7.40;;;6.80;;
434;SDS011;204;48.942;9.256;2023-04-06T15:20:04;8.50;;;7.03;;
434;SDS011;204;48.942;9.256;2023-04-06T15:22:30;9.40;;;7.37;;
434;SDS011;204;48.942;9.256;2023-04-06T15:24:56;7.20;;;6.80;;